createdAt,value
2016-06-19T00:00:59.171Z,1013.11
2016-06-19T00:01:59.159Z,1013.16
2016-06-19T00:02:59.147Z,1013.11
2016-06-19T00:03:59.119Z,1013.11
2016-06-19T00:04:59.107Z,1013.13
2016-06-19T00:05:59.095Z,1013.15
2016-06-19T00:06:59.083Z,1013.09
2016-06-19T00:07:59.070Z,1013.12
2016-06-19T00:08:59.058Z,1013.18
2016-06-19T00:09:59.047Z,1013.16
2016-06-19T00:10:59.033Z,1013.2
2016-06-19T00:11:59.022Z,1013.22
2016-06-19T00:12:59.010Z,1013.2
2016-06-19T00:13:58.998Z,1013.23
2016-06-19T00:14:58.986Z,1013.21
2016-06-19T00:15:58.973Z,1013.19
2016-06-19T00:16:58.945Z,1013.24
2016-06-19T00:17:58.933Z,1013.23
2016-06-19T00:18:58.921Z,1013.22
2016-06-19T00:19:58.909Z,1013.26
2016-06-19T00:20:58.898Z,1013.23
2016-06-19T00:21:58.885Z,1013.19
2016-06-19T00:22:58.872Z,1013.21
2016-06-19T00:23:58.860Z,1013.21
2016-06-19T00:24:58.848Z,1013.21
2016-06-19T00:25:58.836Z,1013.23
2016-06-19T00:26:58.824Z,1013.19
2016-06-19T00:27:58.812Z,1013.18
2016-06-19T00:28:58.783Z,1013.19
2016-06-19T00:29:58.771Z,1013.23
2016-06-19T00:30:58.775Z,1013.25
2016-06-19T00:31:58.747Z,1013.26
2016-06-19T00:32:58.735Z,1013.24
2016-06-19T00:33:58.723Z,1013.25
2016-06-19T00:34:58.711Z,1013.22
2016-06-19T00:35:58.699Z,1013.28
2016-06-19T00:36:58.687Z,1013.27
2016-06-19T00:37:58.674Z,1013.26
2016-06-19T00:38:58.662Z,1013.32
2016-06-19T00:39:58.634Z,1013.26
2016-06-19T00:40:58.637Z,1013.3
2016-06-19T00:41:58.610Z,1013.26
2016-06-19T00:42:58.599Z,1013.27
2016-06-19T00:43:58.586Z,1013.29
2016-06-19T00:44:58.606Z,1013.25
2016-06-19T00:45:58.562Z,1013.26
2016-06-19T00:46:58.549Z,1013.27
2016-06-19T00:47:58.536Z,1013.29
2016-06-19T00:48:58.525Z,1013.29
2016-06-19T00:49:58.513Z,1013.28
2016-06-19T00:50:58.501Z,1013.31
2016-06-19T00:51:58.489Z,1013.3
2016-06-19T00:52:58.461Z,1013.32
2016-06-19T00:53:58.464Z,1013.34
2016-06-19T00:54:58.435Z,1013.28
2016-06-19T00:55:58.439Z,1013.31
2016-06-19T00:56:58.412Z,1013.32
2016-06-19T00:57:58.400Z,1013.33
2016-06-19T00:58:58.388Z,1013.32
2016-06-19T00:59:58.375Z,1013.33
2016-06-19T01:00:58.364Z,1013.37
2016-06-19T01:01:58.351Z,1013.34
2016-06-19T01:02:58.339Z,1013.4
2016-06-19T01:03:58.327Z,1013.38
2016-06-19T01:04:58.314Z,1013.39
2016-06-19T01:05:58.287Z,1013.42
2016-06-19T01:06:58.274Z,1013.42
2016-06-19T01:07:58.262Z,1013.43
2016-06-19T01:08:58.250Z,1013.45
2016-06-19T01:09:58.237Z,1013.44
2016-06-19T01:10:58.226Z,1013.45
2016-06-19T01:11:58.214Z,1013.43
2016-06-19T01:12:58.202Z,1013.46
2016-06-19T01:13:58.190Z,1013.46
2016-06-19T01:14:58.177Z,1013.49
2016-06-19T01:15:58.166Z,1013.46
2016-06-19T01:16:58.137Z,1013.5
2016-06-19T01:17:58.126Z,1013.51
2016-06-19T01:18:58.113Z,1013.47
2016-06-19T01:19:58.101Z,1013.52
2016-06-19T01:20:58.089Z,1013.54
2016-06-19T01:21:58.076Z,1013.53
2016-06-19T01:22:58.064Z,1013.57
2016-06-19T01:23:58.052Z,1013.53
2016-06-19T01:24:58.040Z,1013.61
2016-06-19T01:25:58.028Z,1013.59
2016-06-19T01:26:58.016Z,1013.61
2016-06-19T01:27:57.988Z,1013.63
2016-06-19T01:28:57.991Z,1013.68
2016-06-19T01:29:57.964Z,1013.61
2016-06-19T01:30:57.952Z,1013.65
2016-06-19T01:31:57.939Z,1013.68
2016-06-19T01:32:57.927Z,1013.68
2016-06-19T01:33:57.915Z,1013.73
2016-06-19T01:34:57.903Z,1013.71
2016-06-19T01:35:57.891Z,1013.72
2016-06-19T01:36:57.878Z,1013.78
2016-06-19T01:37:57.866Z,1013.78
2016-06-19T01:38:57.854Z,1013.77
2016-06-19T01:39:57.842Z,1013.77
2016-06-19T01:40:57.830Z,1013.79
2016-06-19T01:41:57.802Z,1013.83
2016-06-19T01:42:57.790Z,1013.82
2016-06-19T01:43:57.777Z,1013.83
2016-06-19T01:44:57.766Z,1013.81
2016-06-19T01:45:57.753Z,1013.88
2016-06-19T01:46:57.740Z,1013.83
2016-06-19T01:47:57.729Z,1013.88
2016-06-19T01:48:57.717Z,1013.84
2016-06-19T01:49:57.705Z,1013.86
2016-06-19T01:50:57.692Z,1013.88
2016-06-19T01:51:57.665Z,1013.9
2016-06-19T01:52:57.684Z,1013.89
2016-06-19T01:53:57.640Z,1013.91
2016-06-19T01:54:57.632Z,1013.91
2016-06-19T01:55:57.624Z,1013.92
2016-06-19T01:56:57.616Z,1013.92
2016-06-19T01:57:57.607Z,1013.97
2016-06-19T01:58:57.597Z,1013.91
2016-06-19T01:59:57.587Z,1013.92
2016-06-19T02:00:57.576Z,1013.96
2016-06-19T02:01:57.564Z,1013.96
2016-06-19T02:02:57.555Z,1014.01
2016-06-19T02:03:57.543Z,1013.98
2016-06-19T02:04:57.532Z,1013.96
2016-06-19T02:05:57.520Z,1013.97
2016-06-19T02:06:57.508Z,1013.97
2016-06-19T02:07:57.497Z,1013.99
2016-06-19T02:08:57.469Z,1013.98
2016-06-19T02:09:57.457Z,1013.98
2016-06-19T02:10:57.445Z,1013.97
2016-06-19T02:11:57.433Z,1014.01
2016-06-19T02:12:57.420Z,1014
2016-06-19T02:13:57.408Z,1014.01
2016-06-19T02:14:57.397Z,1014.04
2016-06-19T02:15:57.383Z,1014.05
2016-06-19T02:16:57.371Z,1014.05
2016-06-19T02:17:57.360Z,1014.04
2016-06-19T02:18:57.333Z,1014.04
2016-06-19T02:19:57.335Z,1014.08
2016-06-19T02:20:57.307Z,1014.07
2016-06-19T02:21:57.296Z,1014.08
2016-06-19T02:22:57.283Z,1014.07
2016-06-19T02:23:57.270Z,1014.11
2016-06-19T02:24:57.259Z,1014.13
2016-06-19T02:25:57.247Z,1014.17
2016-06-19T02:26:57.235Z,1014.15
2016-06-19T02:27:57.222Z,1014.14
2016-06-19T02:28:57.210Z,1014.18
2016-06-19T02:29:57.198Z,1014.14
2016-06-19T02:30:57.186Z,1014.24
2016-06-19T02:31:57.158Z,1014.21
2016-06-19T02:32:57.146Z,1014.21
2016-06-19T02:33:57.134Z,1014.23
2016-06-19T02:34:57.122Z,1014.2
2016-06-19T02:35:57.109Z,1014.17
2016-06-19T02:36:57.097Z,1014.17
2016-06-19T02:37:57.085Z,1014.16
2016-06-19T02:38:57.072Z,1014.22
2016-06-19T02:39:57.060Z,1014.18
2016-06-19T02:40:57.048Z,1014.2
2016-06-19T02:41:57.021Z,1014.2
2016-06-19T02:42:57.008Z,1014.2
2016-06-19T02:43:57.090Z,1014.15
2016-06-19T02:44:56.984Z,1014.22
2016-06-19T02:45:56.971Z,1014.18
2016-06-19T02:46:56.960Z,1014.18
2016-06-19T02:47:56.948Z,1014.19
2016-06-19T02:48:56.935Z,1014.2
2016-06-19T02:49:56.923Z,1014.25
2016-06-19T02:50:56.911Z,1014.18
2016-06-19T02:51:57.087Z,1014.2
2016-06-19T02:52:56.870Z,1014.23
2016-06-19T02:53:56.859Z,1014.24
2016-06-19T02:54:56.847Z,1014.22
2016-06-19T02:55:56.835Z,1014.25
2016-06-19T02:56:56.838Z,1014.27
2016-06-19T02:57:56.810Z,1014.23
2016-06-19T02:58:56.799Z,1014.22
2016-06-19T02:59:57.083Z,1014.25
2016-06-19T03:00:56.758Z,1014.27
2016-06-19T03:01:56.746Z,1014.34
2016-06-19T03:02:56.734Z,1014.37
2016-06-19T03:03:56.722Z,1014.31
2016-06-19T03:04:56.709Z,1014.35
2016-06-19T03:05:56.698Z,1014.34
2016-06-19T03:06:56.685Z,1014.35
2016-06-19T03:07:57.173Z,1014.37
2016-06-19T03:08:56.645Z,1014.35
2016-06-19T03:09:56.633Z,1014.38
2016-06-19T03:10:56.621Z,1014.37
2016-06-19T03:11:56.608Z,1014.4
2016-06-19T03:12:56.597Z,1014.36
2016-06-19T03:13:56.585Z,1014.45
2016-06-19T03:14:56.572Z,1014.43
2016-06-19T03:15:57.154Z,1014.49
2016-06-19T03:16:56.533Z,1014.52
2016-06-19T03:17:56.521Z,1014.51
2016-06-19T03:18:56.507Z,1014.51
2016-06-19T03:19:56.496Z,1014.5
2016-06-19T03:20:56.484Z,1014.53
2016-06-19T03:21:56.487Z,1014.53
2016-06-19T03:22:56.459Z,1014.54
2016-06-19T03:23:57.244Z,1014.5
2016-06-19T03:24:56.436Z,1014.53
2016-06-19T03:25:56.407Z,1014.54
2016-06-19T03:26:56.395Z,1014.56
2016-06-19T03:27:56.383Z,1014.58
2016-06-19T03:28:56.370Z,1014.58
2016-06-19T03:29:56.359Z,1014.63
2016-06-19T03:30:56.346Z,1014.62
2016-06-19T03:31:56.427Z,1014.6
2016-06-19T03:32:56.306Z,1014.64
2016-06-19T03:33:56.295Z,1014.63
2016-06-19T03:34:56.282Z,1014.66
2016-06-19T03:35:56.269Z,1014.7
2016-06-19T03:36:56.258Z,1014.67
2016-06-19T03:37:56.245Z,1014.69
2016-06-19T03:38:56.234Z,1014.69
2016-06-19T03:39:56.471Z,1014.67
2016-06-19T03:40:56.209Z,1014.7
2016-06-19T03:41:56.197Z,1014.72
2016-06-19T03:42:56.169Z,1014.79
2016-06-19T03:43:56.157Z,1014.82
2016-06-19T03:44:56.144Z,1014.85
2016-06-19T03:45:56.133Z,1014.86
2016-06-19T03:46:56.121Z,1014.87
2016-06-19T03:47:56.451Z,1014.89
2016-06-19T03:48:56.097Z,1014.88
2016-06-19T03:49:56.084Z,1014.91
2016-06-19T03:50:56.056Z,1014.93
2016-06-19T03:51:56.043Z,1014.93
2016-06-19T03:52:56.033Z,1014.9
2016-06-19T03:53:56.020Z,1014.92
2016-06-19T03:54:56.007Z,1014.95
2016-06-19T03:55:57.199Z,1014.94
2016-06-19T03:56:55.983Z,1014.99
2016-06-19T03:57:55.971Z,1014.95
2016-06-19T03:58:55.943Z,1014.99
2016-06-19T03:59:55.932Z,1015.03
2016-06-19T04:00:55.919Z,1015.11
2016-06-19T04:01:55.906Z,1015.11
2016-06-19T04:02:55.895Z,1015.13
2016-06-19T04:03:55.882Z,1015.14
2016-06-19T04:04:55.870Z,1015.17
2016-06-19T04:05:55.858Z,1015.2
2016-06-19T04:06:55.846Z,1015.22
2016-06-19T04:07:55.818Z,1015.24
2016-06-19T04:08:55.806Z,1015.2
2016-06-19T04:09:55.794Z,1015.22
2016-06-19T04:10:55.782Z,1015.22
2016-06-19T04:11:55.771Z,1015.21
2016-06-19T04:12:55.762Z,1015.18
2016-06-19T04:13:55.750Z,1015.22
2016-06-19T04:14:55.740Z,1015.21
2016-06-19T04:15:55.713Z,1015.21
2016-06-19T04:16:55.702Z,1015.24
2016-06-19T04:17:55.691Z,1015.21
2016-06-19T04:18:55.678Z,1015.24
2016-06-19T04:19:55.668Z,1015.27
2016-06-19T04:20:55.656Z,1015.31
2016-06-19T04:21:55.644Z,1015.32
2016-06-19T04:22:55.631Z,1015.32
2016-06-19T04:23:55.604Z,1015.33
2016-06-19T04:24:55.592Z,1015.39
2016-06-19T04:25:55.579Z,1015.42
2016-06-19T04:26:55.567Z,1015.38
2016-06-19T04:27:55.555Z,1015.44
2016-06-19T04:28:55.543Z,1015.43
2016-06-19T04:29:55.531Z,1015.44
2016-06-19T04:30:55.518Z,1015.45
2016-06-19T04:31:55.490Z,1015.48
2016-06-19T04:32:55.478Z,1015.51
2016-06-19T04:33:55.467Z,1015.48
2016-06-19T04:34:55.454Z,1015.53
2016-06-19T04:35:55.442Z,1015.51
2016-06-19T04:36:55.430Z,1015.47
2016-06-19T04:37:55.418Z,1015.49
2016-06-19T04:38:55.389Z,1015.48
2016-06-19T04:39:55.393Z,1015.48
2016-06-19T04:40:55.381Z,1015.52
2016-06-19T04:41:55.353Z,1015.49
2016-06-19T04:42:55.357Z,1015.53
2016-06-19T04:43:55.330Z,1015.57
2016-06-19T04:44:55.316Z,1015.54
2016-06-19T04:45:55.305Z,1015.58
2016-06-19T04:46:55.293Z,1015.61
2016-06-19T04:47:55.265Z,1015.55
2016-06-19T04:48:55.252Z,1015.64
2016-06-19T04:49:55.241Z,1015.57
2016-06-19T04:50:55.228Z,1015.58
2016-06-19T04:51:55.216Z,1015.57
2016-06-19T04:52:55.204Z,1015.63
2016-06-19T04:53:55.191Z,1015.65
2016-06-19T04:54:55.179Z,1015.62
2016-06-19T04:55:55.152Z,1015.62
2016-06-19T04:56:55.140Z,1015.63
2016-06-19T04:57:55.127Z,1015.64
2016-06-19T04:58:55.115Z,1015.65
2016-06-19T04:59:55.118Z,1015.69
2016-06-19T05:00:55.087Z,1015.68
2016-06-19T05:01:55.075Z,1015.71
2016-06-19T05:02:55.064Z,1015.74
2016-06-19T05:03:55.036Z,1015.73
2016-06-19T05:04:55.023Z,1015.74
2016-06-19T05:05:55.011Z,1015.75
2016-06-19T05:06:54.999Z,1015.79
2016-06-19T05:07:54.987Z,1015.74
2016-06-19T05:08:54.974Z,1015.77
2016-06-19T05:09:54.962Z,1015.8
2016-06-19T05:10:54.950Z,1015.8
2016-06-19T05:11:54.939Z,1015.84
2016-06-19T05:12:54.910Z,1015.87
2016-06-19T05:13:54.898Z,1015.92
2016-06-19T05:14:54.886Z,1015.87
2016-06-19T05:15:54.873Z,1015.93
2016-06-19T05:16:54.862Z,1015.91
2016-06-19T05:17:54.849Z,1015.9
2016-06-19T05:18:54.838Z,1015.94
2016-06-19T05:19:54.809Z,1015.95
2016-06-19T05:20:54.797Z,1015.98
2016-06-19T05:21:54.785Z,1015.98
2016-06-19T05:22:54.773Z,1016.01
2016-06-19T05:23:54.761Z,1015.97
2016-06-19T05:24:54.749Z,1015.98
2016-06-19T05:25:54.737Z,1015.95
2016-06-19T05:26:54.708Z,1016.01
2016-06-19T05:27:54.697Z,1015.97
2016-06-19T05:28:54.684Z,1016.02
2016-06-19T05:29:54.672Z,1016.02
2016-06-19T05:30:54.660Z,1016.01
2016-06-19T05:31:54.647Z,1016.04
2016-06-19T05:32:54.637Z,1016.12
2016-06-19T05:33:54.607Z,1016.06
2016-06-19T05:34:54.596Z,1016.05
2016-06-19T05:35:54.584Z,1016.06
2016-06-19T05:36:54.571Z,1016.06
2016-06-19T05:37:54.560Z,1016.1
2016-06-19T05:38:54.546Z,1016.1
2016-06-19T05:39:54.535Z,1016.07
2016-06-19T05:40:54.523Z,1016.13
2016-06-19T05:41:54.496Z,1016.09
2016-06-19T05:42:54.498Z,1016.14
2016-06-19T05:43:54.471Z,1016.15
2016-06-19T05:44:54.458Z,1016.13
2016-06-19T05:45:54.446Z,1016.17
2016-06-19T05:46:54.434Z,1016.21
2016-06-19T05:47:54.422Z,1016.19
2016-06-19T05:48:54.410Z,1016.22
2016-06-19T05:49:54.381Z,1016.22
2016-06-19T05:50:54.369Z,1016.23
2016-06-19T05:51:54.358Z,1016.22
2016-06-19T05:52:54.346Z,1016.27
2016-06-19T05:53:54.333Z,1016.31
2016-06-19T05:54:54.322Z,1016.3
2016-06-19T05:55:54.308Z,1016.25
2016-06-19T05:56:54.297Z,1016.32
2016-06-19T05:57:54.285Z,1016.3
2016-06-19T05:58:54.257Z,1016.26
2016-06-19T05:59:54.245Z,1016.3
2016-06-19T06:00:54.232Z,1016.27
2016-06-19T06:01:54.220Z,1016.33
2016-06-19T06:02:54.208Z,1016.3
2016-06-19T06:03:54.196Z,1016.3
2016-06-19T06:04:54.183Z,1016.32
2016-06-19T06:05:54.156Z,1016.34
2016-06-19T06:06:54.143Z,1016.34
2016-06-19T06:07:54.132Z,1016.32
2016-06-19T06:08:54.120Z,1016.33
2016-06-19T06:09:54.154Z,1016.37
2016-06-19T06:10:54.095Z,1016.35
2016-06-19T06:11:54.083Z,1016.39
2016-06-19T06:12:54.056Z,1016.42
2016-06-19T06:13:54.059Z,1016.43
2016-06-19T06:14:54.032Z,1016.41
2016-06-19T06:15:54.019Z,1016.4
2016-06-19T06:16:54.006Z,1016.42
2016-06-19T06:17:53.995Z,1016.39
2016-06-19T06:18:53.982Z,1016.43
2016-06-19T06:19:53.969Z,1016.41
2016-06-19T06:20:53.958Z,1016.44
2016-06-19T06:21:53.930Z,1016.47
2016-06-19T06:22:53.918Z,1016.52
2016-06-19T06:23:53.905Z,1016.46
2016-06-19T06:24:53.894Z,1016.47
2016-06-19T06:25:53.882Z,1016.56
2016-06-19T06:26:53.868Z,1016.51
2016-06-19T06:27:53.841Z,1016.55
2016-06-19T06:28:53.836Z,1016.6
2016-06-19T06:29:53.829Z,1016.6
2016-06-19T06:30:53.823Z,1016.58
2016-06-19T06:31:53.817Z,1016.59
2016-06-19T06:32:53.825Z,1016.6
2016-06-19T06:33:53.799Z,1016.64
2016-06-19T06:34:53.790Z,1016.67
2016-06-19T06:35:53.780Z,1016.67
2016-06-19T06:36:53.755Z,1016.66
2016-06-19T06:37:53.744Z,1016.66
2016-06-19T06:38:53.733Z,1016.69
2016-06-19T06:39:53.722Z,1016.69
2016-06-19T06:40:53.710Z,1016.68
2016-06-19T06:41:53.699Z,1016.72
2016-06-19T06:42:53.673Z,1016.69
2016-06-19T06:43:53.659Z,1016.7
2016-06-19T06:44:53.647Z,1016.71
2016-06-19T06:45:53.635Z,1016.74
2016-06-19T06:46:53.624Z,1016.71
2016-06-19T06:47:53.611Z,1016.7
2016-06-19T06:48:53.599Z,1016.72
2016-06-19T06:49:53.587Z,1016.71
2016-06-19T06:50:53.559Z,1016.72
2016-06-19T06:51:53.546Z,1016.71
2016-06-19T06:52:53.535Z,1016.73
2016-06-19T06:53:53.522Z,1016.71
2016-06-19T06:54:53.510Z,1016.73
2016-06-19T06:55:53.498Z,1016.75
2016-06-19T06:56:53.486Z,1016.76
2016-06-19T06:57:53.474Z,1016.77
2016-06-19T06:58:53.603Z,1016.75
2016-06-19T06:59:53.434Z,1016.82
2016-06-19T07:00:53.422Z,1016.78
2016-06-19T07:01:53.409Z,1016.78
2016-06-19T07:02:53.397Z,1016.79
2016-06-19T07:03:53.385Z,1016.77
2016-06-19T07:04:53.373Z,1016.8
2016-06-19T07:05:53.361Z,1016.81
2016-06-19T07:06:53.583Z,1016.76
2016-06-19T07:07:53.321Z,1016.75
2016-06-19T07:08:53.309Z,1016.76
2016-06-19T07:09:53.343Z,1016.77
2016-06-19T07:10:53.284Z,1016.83
2016-06-19T07:11:53.272Z,1016.83
2016-06-19T07:12:53.260Z,1016.89
2016-06-19T07:13:53.233Z,1016.9
2016-06-19T07:14:53.626Z,1016.94
2016-06-19T07:15:53.207Z,1016.92
2016-06-19T07:16:53.195Z,1016.94
2016-06-19T07:17:53.183Z,1016.93
2016-06-19T07:18:53.172Z,1016.97
2016-06-19T07:19:53.159Z,1016.99
2016-06-19T07:20:53.147Z,1016.97
2016-06-19T07:21:53.120Z,1016.98
2016-06-19T07:22:53.653Z,1017
2016-06-19T07:23:53.095Z,1017
2016-06-19T07:24:53.082Z,1017.06
2016-06-19T07:25:53.071Z,1017.06
2016-06-19T07:26:53.058Z,1017.04
2016-06-19T07:27:53.046Z,1017.05
2016-06-19T07:28:53.019Z,1017.05
2016-06-19T07:29:53.021Z,1017.06
2016-06-19T07:30:53.650Z,1017.07
2016-06-19T07:31:52.998Z,1017.06
2016-06-19T07:32:52.970Z,1017.05
2016-06-19T07:33:52.958Z,1017.07
2016-06-19T07:34:52.945Z,1017.05
2016-06-19T07:35:52.918Z,1017.06
2016-06-19T07:36:52.905Z,1017.08
2016-06-19T07:37:52.893Z,1017.1
2016-06-19T07:38:52.991Z,1017.07
2016-06-19T07:39:52.869Z,1017.05
2016-06-19T07:40:52.857Z,1017.03
2016-06-19T07:41:52.844Z,1016.99
2016-06-19T07:42:52.817Z,1017.01
2016-06-19T07:43:52.804Z,1017
2016-06-19T07:44:52.807Z,1016.99
2016-06-19T07:45:52.780Z,1017.07
2016-06-19T07:46:52.972Z,1017.07
2016-06-19T07:47:52.756Z,1017.04
2016-06-19T07:48:52.744Z,1017.14
2016-06-19T07:49:52.732Z,1017.09
2016-06-19T07:50:52.703Z,1017.17
2016-06-19T07:51:52.691Z,1017.11
2016-06-19T07:52:52.679Z,1017.08
2016-06-19T07:53:52.668Z,1017.12
2016-06-19T07:54:52.952Z,1017.17
2016-06-19T07:55:52.643Z,1017.23
2016-06-19T07:56:52.631Z,1017.23
2016-06-19T07:57:52.619Z,1017.21
2016-06-19T07:58:52.591Z,1017.24
2016-06-19T07:59:52.579Z,1017.19
2016-06-19T08:00:52.567Z,1017.23
2016-06-19T08:01:52.554Z,1017.33
2016-06-19T08:02:52.995Z,1017.32
2016-06-19T08:03:52.530Z,1017.28
2016-06-19T08:04:52.518Z,1017.3
2016-06-19T08:05:52.490Z,1017.27
2016-06-19T08:06:52.478Z,1017.34
2016-06-19T08:07:52.467Z,1017.32
2016-06-19T08:08:52.453Z,1017.32
2016-06-19T08:09:52.442Z,1017.31
2016-06-19T08:10:52.429Z,1017.31
2016-06-19T08:11:52.417Z,1017.33
2016-06-19T08:12:52.389Z,1017.35
2016-06-19T08:13:52.377Z,1017.33
2016-06-19T08:14:52.366Z,1017.35
2016-06-19T08:15:52.353Z,1017.37
2016-06-19T08:16:52.341Z,1017.35
2016-06-19T08:17:52.328Z,1017.36
2016-06-19T08:18:52.300Z,1017.36
2016-06-19T08:19:52.304Z,1017.37
2016-06-19T08:20:52.292Z,1017.34
2016-06-19T08:21:52.280Z,1017.36
2016-06-19T08:22:52.471Z,1017.36
2016-06-19T08:23:52.240Z,1017.34
2016-06-19T08:24:52.228Z,1017.32
2016-06-19T08:25:52.215Z,1017.34
2016-06-19T08:26:52.203Z,1017.32
2016-06-19T08:27:52.191Z,1017.3
2016-06-19T08:28:52.179Z,1017.34
2016-06-19T08:29:52.151Z,1017.32
2016-06-19T08:30:52.139Z,1017.26
2016-06-19T08:31:52.127Z,1017.3
2016-06-19T08:32:52.115Z,1017.32
2016-06-19T08:33:52.102Z,1017.22
2016-06-19T08:34:52.091Z,1017.26
2016-06-19T08:35:52.078Z,1017.34
2016-06-19T08:36:52.050Z,1017.33
2016-06-19T08:37:52.038Z,1017.32
2016-06-19T08:38:52.026Z,1017.36
2016-06-19T08:39:52.014Z,1017.35
2016-06-19T08:40:52.002Z,1017.44
2016-06-19T08:41:51.974Z,1017.42
2016-06-19T08:42:51.962Z,1017.41
2016-06-19T08:43:51.965Z,1017.44
2016-06-19T08:44:51.939Z,1017.48
2016-06-19T08:45:51.931Z,1017.45
2016-06-19T08:46:51.921Z,1017.45
2016-06-19T08:47:51.911Z,1017.46
2016-06-19T08:48:51.902Z,1017.52
2016-06-19T08:49:51.891Z,1017.48
2016-06-19T08:50:51.864Z,1017.47
2016-06-19T08:51:51.853Z,1017.48
2016-06-19T08:52:51.842Z,1017.49
2016-06-19T08:53:51.831Z,1017.51
2016-06-19T08:54:51.819Z,1017.51
2016-06-19T08:55:51.792Z,1017.46
2016-06-19T08:56:51.781Z,1017.57
2016-06-19T08:57:51.768Z,1017.52
2016-06-19T08:58:51.757Z,1017.53
2016-06-19T08:59:51.745Z,1017.53
2016-06-19T09:00:51.733Z,1017.57
2016-06-19T09:01:51.720Z,1017.52
2016-06-19T09:02:51.693Z,1017.56
2016-06-19T09:03:51.681Z,1017.53
2016-06-19T09:04:51.668Z,1017.54
2016-06-19T09:05:51.656Z,1017.56
2016-06-19T09:06:51.644Z,1017.49
2016-06-19T09:07:51.632Z,1017.54
2016-06-19T09:08:51.604Z,1017.55
2016-06-19T09:09:51.592Z,1017.5
2016-06-19T09:10:51.580Z,1017.56
2016-06-19T09:11:51.567Z,1017.54
2016-06-19T09:12:51.555Z,1017.63
2016-06-19T09:13:51.543Z,1017.62
2016-06-19T09:14:51.515Z,1017.72
2016-06-19T09:15:51.518Z,1017.74
2016-06-19T09:16:51.491Z,1017.74
2016-06-19T09:17:51.480Z,1017.78
2016-06-19T09:18:51.467Z,1017.74
2016-06-19T09:19:51.440Z,1017.82
2016-06-19T09:20:51.427Z,1017.83
2016-06-19T09:21:51.415Z,1017.83
2016-06-19T09:22:51.402Z,1017.81
2016-06-19T09:23:51.390Z,1017.81
2016-06-19T09:24:51.378Z,1017.81
2016-06-19T09:25:51.350Z,1017.8
2016-06-19T09:26:51.339Z,1017.83
2016-06-19T09:27:51.326Z,1017.79
2016-06-19T09:28:51.330Z,1017.79
2016-06-19T09:29:51.301Z,1017.84
2016-06-19T09:30:51.274Z,1017.78
2016-06-19T09:31:51.262Z,1017.83
2016-06-19T09:32:51.250Z,1017.88
2016-06-19T09:33:51.238Z,1017.85
2016-06-19T09:34:51.226Z,1017.87
2016-06-19T09:35:51.212Z,1017.86
2016-06-19T09:36:51.201Z,1017.85
2016-06-19T09:37:51.173Z,1017.85
2016-06-19T09:38:51.161Z,1017.87
2016-06-19T09:39:51.149Z,1017.87
2016-06-19T09:40:51.136Z,1017.9
2016-06-19T09:41:51.124Z,1017.85
2016-06-19T09:42:51.112Z,1017.92
2016-06-19T09:43:51.100Z,1017.91
2016-06-19T09:44:51.073Z,1017.9
2016-06-19T09:45:51.060Z,1017.95
2016-06-19T09:46:51.048Z,1017.9
2016-06-19T09:47:51.036Z,1017.93
2016-06-19T09:48:51.007Z,1017.97
2016-06-19T09:49:50.996Z,1017.97
2016-06-19T09:50:50.983Z,1017.97
2016-06-19T09:51:50.972Z,1017.99
2016-06-19T09:52:50.960Z,1017.98
2016-06-19T09:53:50.932Z,1017.99
2016-06-19T09:54:50.919Z,1017.98
2016-06-19T09:55:50.907Z,1017.94
2016-06-19T09:56:50.895Z,1017.99
2016-06-19T09:57:50.883Z,1017.94
2016-06-19T09:58:50.871Z,1017.99
2016-06-19T09:59:50.843Z,1017.92
2016-06-19T10:00:50.831Z,1017.9
2016-06-19T10:01:50.818Z,1017.88
2016-06-19T10:02:50.806Z,1017.93
2016-06-19T10:03:50.795Z,1017.97
2016-06-19T10:04:50.782Z,1017.92
2016-06-19T10:05:50.770Z,1017.92
2016-06-19T10:06:50.742Z,1017.96
2016-06-19T10:07:50.730Z,1017.92
2016-06-19T10:08:50.718Z,1017.98
2016-06-19T10:09:50.705Z,1017.92
2016-06-19T10:10:50.678Z,1017.92
2016-06-19T10:11:50.666Z,1017.94
2016-06-19T10:12:50.653Z,1017.89
2016-06-19T10:13:50.641Z,1017.89
2016-06-19T10:14:50.629Z,1017.91
2016-06-19T10:15:50.617Z,1017.89
2016-06-19T10:16:50.589Z,1017.91
2016-06-19T10:17:50.577Z,1017.92
2016-06-19T10:18:50.565Z,1017.93
2016-06-19T10:19:50.569Z,1017.97
2016-06-19T10:20:50.540Z,1017.9
2016-06-19T10:21:50.529Z,1017.91
2016-06-19T10:22:50.516Z,1017.89
2016-06-19T10:23:50.489Z,1017.91
2016-06-19T10:24:50.476Z,1017.88
2016-06-19T10:25:50.464Z,1017.89
2016-06-19T10:26:50.452Z,1017.89
2016-06-19T10:27:50.439Z,1017.9
2016-06-19T10:28:50.428Z,1017.9
2016-06-19T10:29:50.415Z,1017.93
2016-06-19T10:30:50.388Z,1017.93
2016-06-19T10:31:50.376Z,1017.94
2016-06-19T10:32:50.364Z,1017.92
2016-06-19T10:33:50.352Z,1017.96
2016-06-19T10:34:50.339Z,1017.9
2016-06-19T10:35:50.327Z,1017.97
2016-06-19T10:36:50.299Z,1017.99
2016-06-19T10:37:50.287Z,1017.98
2016-06-19T10:38:50.274Z,1018.04
2016-06-19T10:39:50.263Z,1018.07
2016-06-19T10:40:50.250Z,1018.09
2016-06-19T10:41:50.238Z,1018.14
2016-06-19T10:42:50.227Z,1018.09
2016-06-19T10:43:50.214Z,1018.13
2016-06-19T10:44:50.187Z,1018.12
2016-06-19T10:45:50.173Z,1018.16
2016-06-19T10:46:50.162Z,1018.18
2016-06-19T10:47:50.149Z,1018.17
2016-06-19T10:48:50.137Z,1018.16
2016-06-19T10:49:50.126Z,1018.16
2016-06-19T10:50:50.113Z,1018.18
2016-06-19T10:51:50.086Z,1018.19
2016-06-19T10:52:50.072Z,1018.15
2016-06-19T10:53:50.062Z,1018.11
2016-06-19T10:54:50.049Z,1018.18
2016-06-19T10:55:50.036Z,1018.15
2016-06-19T10:56:50.024Z,1018.19
2016-06-19T10:57:50.059Z,1018.19
2016-06-19T10:58:50.000Z,1018.21
2016-06-19T10:59:49.972Z,1018.17
2016-06-19T11:00:49.961Z,1018.19
2016-06-19T11:01:49.950Z,1018.14
2016-06-19T11:02:49.939Z,1018.17
2016-06-19T11:03:49.929Z,1018.2
2016-06-19T11:04:49.902Z,1018.17
2016-06-19T11:05:50.250Z,1018.19
2016-06-19T11:06:49.879Z,1018.21
2016-06-19T11:07:50.071Z,1018.19
2016-06-19T11:08:49.856Z,1018.18
2016-06-19T11:09:49.844Z,1018.18
2016-06-19T11:10:49.833Z,1018.16
2016-06-19T11:11:49.805Z,1018.17
2016-06-19T11:12:49.794Z,1018.15
2016-06-19T11:13:50.125Z,1018.16
2016-06-19T11:14:49.771Z,1018.15
2016-06-19T11:15:49.758Z,1018.14
2016-06-19T11:16:49.730Z,1018.18
2016-06-19T11:17:49.718Z,1018.13
2016-06-19T11:18:49.705Z,1018.12
2016-06-19T11:19:49.694Z,1018.16
2016-06-19T11:20:49.681Z,1018.12
2016-06-19T11:21:50.748Z,1018.14
2016-06-19T11:22:49.657Z,1018.13
2016-06-19T11:23:49.630Z,1018.14
2016-06-19T11:24:49.617Z,1018.12
2016-06-19T11:25:50.058Z,1018.17
2016-06-19T11:26:49.593Z,1018.17
2016-06-19T11:27:49.597Z,1018.18
2016-06-19T11:28:50.209Z,1018.19
2016-06-19T11:29:50.197Z,1018.21
2016-06-19T11:30:49.544Z,1018.22
2016-06-19T11:31:49.532Z,1018.23
2016-06-19T11:32:49.504Z,1018.25
2016-06-19T11:33:49.742Z,1018.21
2016-06-19T11:34:49.479Z,1018.18
2016-06-19T11:35:49.468Z,1018.16
2016-06-19T11:36:49.455Z,1018.16
2016-06-19T11:37:50.131Z,1018.1
2016-06-19T11:38:49.415Z,1018.14
2016-06-19T11:39:49.403Z,1018.23
2016-06-19T11:40:49.406Z,1018.23
2016-06-19T11:41:49.378Z,1018.16
2016-06-19T11:42:49.993Z,1018.2
2016-06-19T11:43:49.355Z,1018.23
2016-06-19T11:44:49.327Z,1018.23
2016-06-19T11:45:50.549Z,1018.24
2016-06-19T11:46:49.302Z,1018.2
2016-06-19T11:47:49.306Z,1018.14
2016-06-19T11:48:49.278Z,1018.11
2016-06-19T11:49:49.266Z,1018.13
2016-06-19T11:50:49.473Z,1018.19
2016-06-19T11:51:49.226Z,1018.15
2016-06-19T11:52:49.229Z,1018.16
2016-06-19T11:53:49.702Z,1018.17
2016-06-19T11:54:49.205Z,1018.13
2016-06-19T11:55:49.616Z,1018.16
2016-06-19T11:56:49.400Z,1018.16
2016-06-19T11:57:49.185Z,1018.16
2016-06-19T11:58:49.953Z,1018.13
2016-06-19T12:01:49.339Z,1018.16
2016-06-19T12:02:36.592Z,1018.16
2016-06-19T12:03:36.580Z,1018.12
2016-06-19T12:04:36.569Z,1018.08
2016-06-19T12:05:36.540Z,1018.11
2016-06-19T12:06:36.528Z,1018.13
2016-06-19T12:07:36.516Z,1018.12
2016-06-19T12:08:36.504Z,1018.16
2016-06-19T12:09:36.491Z,1018.18